createdAt,value
2022-08-12T04:45:55.518Z,59.60
2022-08-12T04:46:56.525Z,59.50
2022-08-12T04:47:56.518Z,57.78
2022-08-12T04:48:56.490Z,58.59
2022-08-12T04:49:56.475Z,59.09
2022-08-12T04:50:56.486Z,59.40
2022-08-12T04:51:59.445Z,57.25
2022-08-12T04:52:56.447Z,56.75
2022-08-12T04:53:56.431Z,55.91
2022-08-12T04:54:56.425Z,55.79
2022-08-12T04:55:56.427Z,55.29
2022-08-12T04:57:04.869Z,55.26
2022-08-12T04:57:56.401Z,56.16
2022-08-12T04:58:56.378Z,55.46
2022-08-12T04:59:56.369Z,56.16
2022-08-12T05:00:56.379Z,55.56
2022-08-12T05:01:56.395Z,54.15
2022-08-12T05:02:56.414Z,53.72
2022-08-12T05:03:56.326Z,54.83
2022-08-12T05:05:00.992Z,55.83
2022-08-12T05:05:56.317Z,54.23
2022-08-12T05:06:56.300Z,54.73
2022-08-12T05:07:56.282Z,54.63
2022-08-12T05:08:56.279Z,55.13
2022-08-12T05:09:59.932Z,54.53
2022-08-12T05:10:56.292Z,54.73
2022-08-12T05:11:56.245Z,55.13
2022-08-12T05:12:56.245Z,55.94
2022-08-12T05:13:56.227Z,55.33
2022-08-12T05:14:56.221Z,55.33
2022-08-12T05:16:05.097Z,55.46
2022-08-12T05:16:56.199Z,57.07
2022-08-12T05:17:56.355Z,54.75
2022-08-12T05:18:56.174Z,54.83
2022-08-12T05:19:57.216Z,54.83
2022-08-12T05:20:56.176Z,55.13
2022-08-12T05:21:56.144Z,55.13
2022-08-12T05:22:57.993Z,54.60
2022-08-12T05:23:56.117Z,55.21
2022-08-12T05:24:56.115Z,54.10
2022-08-12T05:25:56.118Z,54.40
2022-08-12T05:26:56.137Z,54.00
2022-08-12T05:27:59.179Z,53.67
2022-08-12T05:28:56.084Z,54.28
2022-08-12T05:30:06.721Z,54.48
2022-08-12T05:30:56.068Z,55.48
2022-08-12T05:31:56.040Z,54.58
2022-08-12T05:33:00.076Z,56.09
2022-08-12T05:33:56.016Z,55.79
2022-08-12T05:34:56.008Z,54.38
2022-08-12T05:35:56.009Z,53.88
2022-08-12T05:36:56.013Z,55.28
2022-08-12T05:37:55.972Z,54.38
2022-08-12T05:38:55.969Z,53.97
2022-08-12T05:39:56.052Z,53.57
2022-08-12T05:40:55.960Z,54.48
2022-08-12T05:41:55.933Z,55.88
2022-08-12T05:42:55.922Z,54.48
2022-08-12T05:43:55.921Z,56.29
2022-08-12T05:44:55.907Z,55.18
2022-08-12T05:45:55.905Z,56.36
2022-08-12T05:46:55.881Z,54.96
2022-08-12T05:47:55.866Z,54.88
2022-08-12T05:48:55.884Z,55.46
2022-08-12T05:49:55.847Z,55.16
2022-08-12T05:50:55.858Z,55.05
2022-08-12T05:51:55.827Z,54.83
2022-08-12T05:52:55.833Z,55.33
2022-08-12T05:53:55.805Z,53.42
2022-08-12T05:54:57.875Z,53.12
2022-08-12T05:55:55.800Z,53.50
2022-08-12T05:56:55.777Z,54.30
2022-08-12T05:57:55.764Z,51.97
2022-08-12T05:58:55.754Z,51.87
2022-08-12T05:59:55.741Z,51.84
2022-08-12T06:00:55.748Z,51.54
2022-08-12T06:02:12.521Z,51.34
2022-08-12T06:02:55.804Z,50.84
2022-08-12T06:03:55.698Z,50.71
2022-08-12T06:04:55.695Z,51.12
2022-08-12T06:05:55.934Z,50.01
2022-08-12T06:06:55.671Z,49.91
2022-08-12T06:08:01.639Z,50.59
2022-08-12T06:08:55.647Z,51.79
2022-08-12T06:09:55.632Z,50.99
2022-08-12T06:10:55.641Z,49.69
2022-08-12T06:12:04.498Z,49.46
2022-08-12T06:12:55.605Z,49.26
2022-08-12T06:13:55.587Z,48.96
2022-08-12T06:14:55.585Z,48.94
2022-08-12T06:15:55.600Z,48.54
2022-08-12T06:16:55.562Z,48.61
2022-08-12T06:17:55.546Z,48.82
2022-08-12T06:18:55.538Z,48.02
2022-08-12T06:20:26.685Z,48.49
2022-08-12T06:20:55.537Z,48.90
2022-08-12T06:21:55.510Z,47.79
2022-08-12T06:22:55.495Z,48.19
2022-08-12T06:23:55.478Z,46.77
2022-08-12T06:24:55.481Z,46.57
2022-08-12T06:25:55.460Z,46.87
2022-08-12T06:26:55.469Z,47.27
2022-08-12T06:28:06.879Z,47.85
2022-08-12T06:28:55.436Z,46.45
2022-08-12T06:30:10.254Z,45.85
2022-08-12T06:31:24.115Z,45.85
2022-08-12T06:31:55.415Z,47.35
2022-08-12T06:33:11.435Z,45.33
2022-08-12T06:35:22.620Z,47.22
2022-08-12T06:35:48.630Z,46.03
2022-08-12T06:35:57.717Z,45.73
2022-08-12T06:36:55.366Z,47.13
2022-08-12T06:37:56.813Z,46.13
2022-08-12T06:38:55.328Z,46.01
2022-08-12T06:39:58.074Z,46.50
2022-08-12T06:40:55.298Z,46.61
2022-08-12T06:42:04.965Z,46.80
2022-08-12T06:42:55.292Z,47.40
2022-08-12T06:44:06.658Z,46.50
2022-08-12T06:44:55.264Z,47.30
2022-08-12T06:45:55.246Z,46.01
2022-08-12T06:46:56.795Z,46.61
2022-08-12T06:47:55.220Z,45.68
2022-08-12T06:48:55.220Z,45.89
2022-08-12T06:49:55.207Z,45.18
2022-08-12T06:50:55.201Z,45.66
2022-08-12T06:51:56.160Z,46.56
2022-08-12T06:52:55.177Z,46.06
2022-08-12T06:53:55.159Z,46.66
2022-08-12T06:54:55.157Z,45.54
2022-08-12T06:55:57.849Z,46.34
2022-08-12T06:57:04.878Z,45.94
2022-08-12T06:58:08.207Z,46.24
2022-08-12T06:58:55.116Z,46.64
2022-08-12T06:59:55.103Z,45.74
2022-08-12T07:00:55.181Z,45.34
2022-08-12T07:01:55.098Z,44.12
2022-08-12T07:02:55.071Z,44.12
2022-08-12T07:03:55.064Z,44.12
2022-08-12T07:04:55.053Z,44.92
2022-08-12T07:05:55.039Z,44.01
2022-08-12T07:06:55.042Z,43.71
2022-08-12T07:07:55.024Z,42.61
2022-08-12T07:08:55.013Z,41.79
2022-08-12T07:10:04.859Z,41.50
2022-08-12T07:10:54.995Z,40.98
2022-08-12T07:11:55.001Z,40.38
2022-08-12T07:12:54.979Z,39.89
2022-08-12T07:14:12.559Z,39.59
2022-08-12T07:14:54.952Z,40.16
2022-08-12T07:15:54.938Z,40.06
2022-08-12T07:16:54.938Z,40.16
2022-08-12T07:17:54.938Z,40.86
2022-08-12T07:18:54.907Z,40.06
2022-08-12T07:19:58.002Z,40.44
2022-08-12T07:20:54.896Z,40.74
2022-08-12T07:21:59.899Z,40.44
2022-08-12T07:22:54.871Z,39.54
2022-08-12T07:23:54.856Z,39.45
2022-08-12T07:24:54.842Z,40.33
2022-08-12T07:25:58.354Z,41.22
2022-08-12T07:26:54.837Z,40.22
2022-08-12T07:27:54.818Z,39.23
2022-08-12T07:28:54.793Z,38.73
2022-08-12T07:29:58.114Z,38.64
2022-08-12T07:30:54.783Z,38.73
2022-08-12T07:31:54.791Z,39.61
2022-08-12T07:32:58.538Z,39.81
2022-08-12T07:33:54.759Z,40.11
2022-08-12T07:34:54.801Z,39.11
2022-08-12T07:35:54.735Z,39.61
2022-08-12T07:36:54.731Z,39.79
2022-08-12T07:37:54.705Z,38.10
2022-08-12T07:38:54.695Z,39.49
2022-08-12T07:40:00.415Z,39.29
2022-08-12T07:40:54.679Z,39.17
2022-08-12T07:41:54.678Z,38.88
2022-08-12T07:42:54.653Z,39.57
2022-08-12T07:43:54.645Z,38.58
2022-08-12T07:44:54.639Z,38.58
2022-08-12T07:45:54.628Z,38.88
2022-08-12T07:46:54.626Z,38.10
2022-08-12T07:47:54.620Z,38.12
2022-08-12T07:48:54.589Z,38.70
2022-08-12T07:50:04.147Z,38.79
2022-08-12T07:50:54.573Z,38.48
2022-08-12T07:51:54.585Z,38.48
2022-08-12T07:52:54.547Z,37.09
2022-08-12T07:54:01.108Z,39.06
2022-08-12T07:54:54.530Z,38.07
2022-08-12T07:55:54.520Z,38.44
2022-08-12T07:56:54.512Z,38.44
2022-08-12T07:57:54.498Z,36.96
2022-08-12T07:58:54.479Z,37.17
2022-08-12T07:59:55.843Z,37.47
2022-08-12T08:00:54.466Z,36.68
2022-08-12T08:01:54.532Z,38.15
2022-08-12T08:02:54.457Z,39.14
2022-08-12T08:03:54.432Z,38.82
2022-08-12T08:04:54.416Z,38.03
2022-08-12T08:05:54.414Z,38.72
2022-08-12T08:06:54.415Z,38.11
2022-08-12T08:07:54.391Z,37.71
2022-08-12T08:08:54.379Z,37.22
2022-08-12T08:09:58.595Z,37.32
2022-08-12T08:10:54.357Z,36.52
2022-08-12T08:11:54.368Z,37.12
2022-08-12T08:12:54.342Z,36.82
2022-08-12T08:13:54.328Z,36.92
2022-08-12T08:14:54.314Z,37.81
2022-08-12T08:16:03.410Z,38.39
2022-08-12T08:16:54.315Z,37.40
2022-08-12T08:17:54.288Z,37.68
2022-08-12T08:18:54.282Z,36.69
2022-08-12T08:20:02.903Z,35.99
2022-08-12T08:20:54.276Z,35.49
2022-08-12T08:21:54.295Z,37.66
2022-08-12T08:22:54.290Z,41.10
2022-08-12T08:23:56.364Z,35.76
2022-08-12T08:24:54.204Z,34.48
2022-08-12T08:25:54.206Z,34.79
2022-08-12T08:26:54.191Z,35.66
2022-08-12T08:27:54.194Z,35.66
2022-08-12T08:28:54.183Z,35.94
2022-08-12T08:29:54.165Z,33.47
2022-08-12T08:30:54.146Z,32.47
2022-08-12T08:31:54.139Z,32.78
2022-08-12T08:32:54.153Z,33.75
2022-08-12T08:34:09.022Z,33.25
2022-08-12T08:34:54.823Z,33.34
2022-08-12T08:35:54.368Z,32.65
2022-08-12T08:36:54.083Z,31.48
2022-08-12T08:37:54.096Z,31.20
2022-08-12T08:38:57.770Z,32.39
2022-08-12T08:39:54.125Z,32.97
2022-08-12T08:40:54.043Z,32.07
2022-08-12T08:42:16.938Z,32.65
2022-08-12T08:42:54.049Z,32.65
2022-08-12T08:43:54.022Z,31.86
2022-08-12T08:44:57.903Z,31.65
2022-08-12T08:45:54.000Z,30.37
2022-08-12T08:46:53.988Z,30.16
2022-08-12T08:47:57.162Z,30.16
2022-08-12T08:48:57.654Z,29.65
2022-08-12T08:49:53.973Z,30.54
2022-08-12T08:51:04.105Z,29.55
2022-08-12T08:51:53.948Z,29.74
2022-08-12T08:52:53.962Z,29.72
2022-08-12T08:53:53.920Z,28.44
2022-08-12T08:54:53.911Z,28.63
2022-08-12T08:56:04.482Z,27.22
2022-08-12T08:56:53.898Z,26.90
2022-08-12T08:57:53.895Z,26.29
2022-08-12T08:58:53.894Z,25.68
2022-08-12T08:59:53.871Z,26.96
2022-08-12T09:00:53.851Z,25.96
2022-08-12T09:01:53.904Z,25.56
2022-08-12T09:02:58.770Z,26.05
2022-08-12T09:28:49.679Z,25.11
2022-08-12T09:28:58.169Z,22.97
2022-08-12T09:30:12.509Z,22.41
2022-08-12T09:30:58.989Z,23.07
2022-08-12T09:32:07.437Z,22.61
2022-08-12T09:33:05.923Z,23.38
2022-08-12T09:34:27.638Z,22.22
2022-08-12T09:34:58.085Z,22.83
2022-08-12T09:36:04.742Z,23.03
2022-08-12T09:37:01.583Z,24.77
2022-08-12T09:38:00.855Z,24.48
2022-08-12T09:38:59.144Z,23.43
2022-08-12T09:40:05.031Z,23.80
2022-08-12T09:42:08.422Z,23.21
2022-08-12T09:42:56.814Z,22.52
2022-08-12T09:43:18.680Z,23.08
2022-08-12T09:44:01.145Z,24.55
2022-08-12T09:45:18.395Z,24.24
2022-08-12T09:46:06.466Z,24.32
2022-08-12T09:46:57.957Z,22.16
2022-08-12T09:47:59.861Z,22.05
2022-08-12T09:48:57.932Z,21.93
2022-08-12T09:49:58.903Z,20.06
2022-08-12T09:51:01.564Z,20.48
2022-08-12T09:51:57.919Z,22.06
2022-08-12T09:53:03.850Z,22.53
2022-08-12T09:54:08.310Z,21.85
2022-08-12T09:55:02.412Z,20.48
2022-08-12T09:56:06.666Z,21.14
2022-08-12T09:58:50.951Z,19.78
2022-08-12T09:59:05.345Z,21.37
2022-08-12T09:59:10.188Z,22.47
2022-08-12T10:00:13.044Z,22.47
2022-08-12T10:01:15.472Z,21.96
2022-08-12T10:02:43.307Z,20.10
2022-08-12T10:03:32.175Z,19.12
2022-08-12T10:04:10.247Z,19.04
2022-08-12T10:05:13.887Z,21.36
2022-08-12T10:06:20.414Z,20.86
2022-08-12T10:07:13.005Z,19.65
2022-08-12T10:08:10.118Z,20.32
2022-08-12T10:09:10.093Z,20.94
2022-08-12T10:10:22.282Z,21.88
2022-08-12T10:11:18.647Z,19.42
2022-08-12T10:12:13.013Z,19.89
2022-08-12T10:13:12.524Z,18.73
2022-08-12T10:14:13.444Z,20.36
2022-08-12T10:15:15.117Z,18.69
2022-08-12T10:16:21.803Z,18.41
2022-08-12T10:17:10.014Z,19.02
2022-08-12T10:18:10.016Z,19.13
2022-08-12T10:19:17.095Z,21.06
2022-08-12T10:20:12.025Z,20.01
2022-08-12T10:21:09.973Z,20.32
2022-08-12T10:22:17.136Z,20.61
2022-08-12T10:23:12.465Z,20.24
2022-08-12T10:24:09.943Z,22.25
2022-08-12T10:25:17.369Z,20.00
2022-08-12T10:26:36.646Z,19.34
2022-08-12T10:27:14.180Z,21.05
2022-08-12T10:28:24.116Z,19.68
2022-08-12T10:30:01.824Z,20.34
2022-08-12T10:30:46.955Z,18.51
2022-08-12T10:31:16.308Z,18.70
2022-08-12T10:32:20.933Z,18.79
2022-08-12T10:33:18.330Z,18.87
2022-08-12T10:34:23.576Z,20.01
2022-08-12T10:35:09.859Z,19.35
2022-08-12T10:36:09.824Z,18.21
2022-08-12T10:37:20.983Z,18.51
2022-08-12T10:38:33.325Z,19.96
2022-08-12T10:40:02.008Z,19.20
2022-08-12T10:40:15.718Z,19.19
2022-08-12T10:41:12.365Z,17.56
2022-08-12T10:42:09.841Z,18.73
2022-08-12T10:43:09.777Z,19.61
2022-08-12T10:44:09.756Z,18.17
2022-08-12T10:45:09.747Z,18.78
2022-08-12T10:46:13.839Z,18.68
2022-08-12T10:48:01.182Z,19.81
2022-08-12T10:48:34.308Z,21.93
2022-08-12T10:50:02.725Z,18.61
2022-08-12T10:50:35.727Z,17.94
2022-08-12T10:52:02.507Z,17.57
2022-08-12T10:52:34.856Z,18.35
2022-08-12T10:53:09.719Z,17.86
2022-08-12T10:54:09.665Z,19.02
2022-08-12T10:55:13.337Z,18.53
2022-08-12T10:56:09.628Z,18.26
2022-08-12T10:57:18.168Z,18.91
2022-08-12T10:58:15.225Z,18.02
2022-08-12T10:59:10.856Z,17.54
2022-08-12T11:00:34.570Z,17.54
2022-08-12T11:03:01.596Z,17.83
2022-08-12T11:04:49.054Z,17.25
2022-08-12T11:04:54.949Z,18.65
2022-08-12T11:07:08.365Z,18.78
2022-08-12T11:08:42.763Z,19.37
2022-08-12T11:08:48.856Z,19.44
2022-08-12T11:10:00.280Z,17.58
2022-08-12T11:10:48.771Z,18.68
2022-08-12T11:12:37.094Z,18.70
2022-08-12T11:13:01.930Z,19.86
2022-08-12T11:13:49.282Z,19.07
2022-08-12T11:14:51.468Z,20.32
2022-08-12T11:16:04.293Z,19.13
2022-08-12T11:17:35.034Z,20.06
2022-08-12T11:17:59.161Z,18.60
2022-08-12T11:18:48.705Z,19.00
2022-08-12T11:19:48.695Z,19.27
2022-08-12T11:20:49.190Z,19.25
2022-08-12T11:21:58.444Z,17.88
2022-08-12T11:22:57.933Z,19.66
2022-08-12T11:23:53.633Z,17.91
2022-08-12T11:24:51.322Z,18.91
2022-08-12T11:25:58.331Z,19.24
2022-08-12T11:26:48.648Z,18.94
2022-08-12T11:27:51.303Z,20.22
2022-08-12T11:28:59.295Z,19.32
2022-08-12T11:30:06.081Z,18.81
2022-08-12T11:30:48.576Z,20.39
2022-08-12T11:32:01.638Z,20.18
2022-08-12T11:32:48.576Z,18.73
2022-08-12T11:34:05.706Z,19.25
2022-08-12T11:34:59.343Z,20.31
2022-08-12T11:35:48.531Z,19.21
2022-08-12T11:36:53.513Z,19.01
2022-08-12T11:37:58.084Z,18.49
2022-08-12T11:38:50.884Z,18.47
2022-08-12T11:40:48.453Z,16.83
2022-08-12T11:41:48.435Z,18.01
2022-08-12T11:42:48.600Z,18.77
2022-08-12T11:43:50.610Z,17.64
2022-08-12T11:44:48.417Z,18.15
2022-08-12T11:45:52.970Z,17.18
2022-08-12T11:46:51.447Z,19.09
2022-08-12T11:47:49.275Z,18.21
2022-08-12T11:48:51.512Z,16.86
2022-08-12T11:49:51.922Z,17.46
2022-08-12T11:50:48.349Z,16.97
2022-08-12T11:51:57.648Z,17.56
2022-08-12T11:52:56.628Z,18.15
2022-08-12T11:53:59.346Z,17.28
2022-08-12T11:54:51.201Z,17.48
2022-08-12T11:55:48.304Z,17.80
2022-08-12T11:56:52.465Z,18.19
2022-08-12T11:58:47.772Z,18.07
2022-08-12T12:02:04.751Z,17.46
2022-08-12T12:02:10.327Z,17.28
2022-08-12T12:02:20.165Z,17.36
2022-08-12T12:03:17.312Z,17.74
2022-08-12T12:04:29.170Z,18.30
2022-08-12T12:05:15.770Z,17.32
2022-08-12T12:06:16.870Z,16.23
2022-08-12T12:07:15.976Z,16.31
2022-08-12T12:08:38.164Z,16.81
2022-08-12T12:09:16.671Z,16.62
2022-08-12T12:10:15.716Z,17.05
2022-08-12T12:11:15.707Z,17.87
2022-08-12T12:12:15.696Z,19.06
2022-08-12T12:13:22.989Z,18.83
2022-08-12T12:14:15.856Z,17.54
2022-08-12T12:15:15.672Z,17.72
2022-08-12T12:16:15.664Z,17.50
2022-08-12T12:17:15.654Z,17.22
2022-08-12T12:18:15.641Z,18.28
2022-08-12T12:19:15.655Z,17.62
2022-08-12T12:20:15.618Z,18.00
2022-08-12T12:21:15.617Z,17.25
2022-08-12T12:22:23.636Z,17.36
2022-08-12T12:23:28.995Z,18.66
2022-08-12T12:24:20.863Z,18.96
2022-08-12T12:25:15.582Z,19.91
2022-08-12T12:26:34.768Z,19.09
2022-08-12T12:27:15.844Z,19.85
2022-08-12T12:28:36.737Z,17.69
2022-08-12T12:30:18.875Z,16.99
2022-08-12T12:30:34.342Z,16.89
2022-08-12T12:32:09.940Z,18.26
2022-08-12T12:32:16.530Z,16.61
2022-08-12T12:33:18.074Z,18.57
2022-08-12T12:34:30.438Z,17.03
2022-08-12T12:36:05.827Z,18.26
2022-08-12T12:36:30.306Z,19.43
2022-08-12T12:37:16.444Z,19.32
2022-08-12T12:38:15.464Z,19.22
2022-08-12T12:39:15.502Z,19.53
2022-08-12T12:40:15.511Z,20.12
2022-08-12T12:41:16.800Z,20.00
2022-08-12T12:42:43.102Z,20.18
2022-08-12T12:43:15.417Z,18.65
2022-08-12T12:44:30.343Z,18.83
2022-08-12T12:45:19.615Z,18.25
2022-08-12T12:46:15.383Z,18.57
2022-08-12T12:47:29.356Z,20.12
2022-08-12T12:48:15.362Z,18.07
2022-08-12T12:49:15.519Z,19.73
2022-08-12T12:50:34.870Z,19.04
2022-08-12T12:51:22.188Z,18.07
2022-08-12T12:52:19.835Z,17.78
2022-08-12T12:54:08.845Z,18.57
2022-08-12T12:54:16.245Z,18.07
2022-08-12T12:55:15.296Z,18.29
2022-08-12T12:56:15.501Z,18.39
2022-08-12T12:57:15.271Z,18.29
2022-08-12T12:58:15.261Z,18.21
2022-08-12T12:59:55.056Z,18.99
2022-08-12T13:00:15.253Z,18.72
2022-08-12T13:01:25.548Z,18.73
2022-08-12T13:02:15.261Z,19.31
2022-08-12T13:03:19.166Z,19.01
2022-08-12T13:04:15.213Z,18.80
2022-08-12T13:05:16.240Z,20.36
2022-08-12T13:06:15.187Z,18.59
2022-08-12T13:07:15.176Z,18.29
2022-08-12T13:08:15.187Z,18.60
2022-08-12T13:09:15.181Z,19.27
2022-08-12T13:10:15.152Z,18.30
2022-08-12T13:11:15.143Z,19.57
2022-08-12T13:12:15.129Z,21.51
2022-08-12T13:14:08.795Z,19.56
2022-08-12T13:14:28.608Z,19.27
2022-08-12T13:15:15.110Z,20.45
2022-08-12T13:16:18.688Z,20.56
2022-08-12T13:17:15.086Z,22.06
2022-08-12T13:18:15.069Z,21.95
2022-08-12T13:19:15.245Z,21.56
2022-08-12T13:20:15.050Z,20.21
2022-08-12T13:21:15.665Z,20.51
2022-08-12T13:22:15.036Z,20.22
2022-08-12T13:23:36.570Z,21.69
2022-08-12T13:24:15.029Z,21.11
2022-08-12T13:25:15.007Z,21.42
2022-08-12T13:26:14.997Z,21.99
2022-08-12T13:27:14.986Z,21.00
2022-08-12T13:28:14.971Z,20.82
2022-08-12T13:29:15.332Z,21.39
2022-08-12T13:30:14.949Z,21.78
2022-08-12T13:31:14.948Z,20.59
2022-08-12T13:32:31.508Z,20.30
2022-08-12T13:33:17.546Z,21.48
2022-08-12T13:34:31.922Z,20.50
2022-08-12T13:35:19.352Z,20.98
2022-08-12T13:36:17.994Z,21.19
2022-08-12T13:37:14.897Z,19.73
2022-08-12T13:38:14.868Z,20.70
2022-08-12T13:39:16.224Z,21.78
2022-08-12T13:40:14.853Z,20.12
2022-08-12T13:41:14.851Z,22.96
2022-08-12T13:42:14.978Z,21.10
2022-08-12T13:43:14.831Z,21.30
2022-08-12T13:44:14.838Z,21.39
2022-08-12T13:45:14.807Z,23.65
2022-08-12T13:46:14.794Z,22.00
2022-08-12T13:47:19.771Z,21.81
2022-08-12T13:48:14.781Z,22.41
2022-08-12T13:49:17.304Z,22.11
2022-08-12T13:50:14.760Z,21.62
2022-08-12T13:51:14.753Z,22.50
2022-08-12T13:52:14.743Z,23.66
2022-08-12T13:53:24.951Z,22.60
2022-08-12T13:54:14.740Z,22.31
2022-08-12T13:55:14.719Z,23.18
2022-08-12T13:56:14.699Z,22.09
2022-08-12T13:57:16.995Z,21.49
2022-08-12T13:58:14.678Z,22.07
2022-08-12T13:59:14.687Z,22.95
2022-08-12T14:00:14.660Z,22.27
2022-08-12T14:01:14.652Z,21.59
2022-08-12T14:02:14.665Z,21.70
2022-08-12T14:03:14.689Z,22.21
2022-08-12T14:04:14.661Z,23.09
2022-08-12T14:05:31.037Z,22.02
2022-08-12T14:06:15.602Z,23.57
2022-08-12T14:07:14.593Z,23.47
2022-08-12T14:08:14.580Z,23.08
2022-08-12T14:09:17.913Z,23.27
2022-08-12T14:10:16.361Z,22.28
2022-08-12T14:11:14.559Z,22.28
2022-08-12T14:12:16.318Z,22.38
2022-08-12T14:13:17.287Z,22.20
2022-08-12T14:14:14.548Z,22.20
2022-08-12T14:15:14.521Z,22.59
2022-08-12T14:16:14.620Z,22.20
2022-08-12T14:17:14.504Z,22.58
2022-08-12T14:18:14.491Z,22.28
2022-08-12T14:19:22.008Z,22.96
2022-08-12T14:20:14.467Z,22.08
2022-08-12T14:21:18.153Z,23.37
2022-08-12T14:22:14.456Z,22.88
2022-08-12T14:24:01.521Z,21.91
2022-08-12T14:24:14.446Z,21.42
2022-08-12T14:25:14.429Z,22.69
2022-08-12T14:26:17.065Z,22.49
2022-08-12T14:27:14.407Z,22.88
2022-08-12T14:28:14.397Z,23.38
2022-08-12T14:29:21.843Z,23.19
2022-08-12T14:30:17.137Z,22.60
2022-08-12T14:31:18.355Z,24.55
2022-08-12T14:32:16.607Z,24.84
2022-08-12T14:33:14.349Z,23.37
2022-08-12T14:34:14.347Z,22.69
2022-08-12T14:35:14.324Z,22.59
2022-08-12T14:36:14.317Z,22.60
2022-08-12T14:37:55.574Z,23.09
2022-08-12T14:38:14.299Z,23.09
2022-08-12T14:39:14.375Z,23.00
2022-08-12T14:40:18.285Z,22.22
2022-08-12T14:41:14.638Z,22.89
2022-08-12T14:42:14.254Z,23.38
2022-08-12T14:43:14.275Z,22.71
2022-08-12T14:44:59.326Z,23.19
2022-08-12T14:45:14.245Z,21.92
2022-08-12T14:46:14.217Z,22.50
2022-08-12T14:47:14.211Z,22.59
2022-08-12T14:48:14.872Z,23.08
2022-08-12T14:50:41.276Z,24.05
2022-08-12T14:52:55.672Z,22.59
2022-08-12T14:54:55.858Z,23.86
2022-08-12T14:56:59.551Z,22.41
2022-08-12T14:57:20.377Z,23.59
2022-08-12T14:57:57.010Z,23.21
2022-08-12T14:58:51.809Z,22.91
2022-08-12T14:59:57.305Z,22.62
2022-08-12T15:00:50.865Z,22.12
2022-08-12T15:01:44.982Z,21.92
2022-08-12T15:02:44.942Z,21.53
2022-08-12T15:03:52.966Z,21.24
2022-08-12T15:04:45.332Z,21.45
2022-08-12T15:06:06.342Z,20.65
2022-08-12T15:06:52.582Z,20.85
2022-08-12T15:07:51.202Z,21.44
2022-08-12T15:08:44.893Z,21.74
2022-08-12T15:09:44.883Z,20.76
2022-08-12T15:10:49.850Z,22.91
2022-08-12T15:11:54.758Z,22.91
2022-08-12T15:12:44.852Z,21.24
2022-08-12T15:13:44.830Z,20.95
2022-08-12T15:14:45.735Z,23.21
2022-08-12T15:15:45.793Z,21.45
2022-08-12T15:16:44.800Z,21.53
2022-08-12T15:17:44.792Z,23.20
2022-08-12T15:18:55.343Z,23.39
2022-08-12T15:20:31.700Z,21.64
2022-08-12T15:20:44.771Z,21.95
2022-08-12T15:22:37.786Z,21.75
2022-08-12T15:22:53.809Z,22.53
2022-08-12T15:23:54.914Z,22.74
2022-08-12T15:24:44.746Z,22.94
2022-08-12T15:25:47.376Z,22.74
2022-08-12T15:26:44.707Z,23.81
2022-08-12T15:28:03.901Z,23.02
2022-08-12T15:28:54.086Z,22.44
2022-08-12T15:29:44.747Z,22.05
2022-08-12T15:30:44.666Z,23.02
2022-08-12T15:31:59.748Z,22.83
2022-08-12T15:32:44.653Z,22.35
2022-08-12T15:33:46.285Z,22.84
2022-08-12T15:34:44.645Z,22.55
2022-08-12T15:35:53.055Z,23.03
2022-08-12T15:36:54.596Z,22.35
2022-08-12T15:38:09.141Z,22.64
2022-08-12T15:38:44.604Z,23.72
2022-08-12T15:40:00.782Z,23.02
2022-08-12T15:40:48.314Z,22.92
2022-08-12T15:41:50.039Z,23.03
2022-08-12T15:42:46.793Z,23.61
2022-08-12T15:44:16.396Z,23.91
2022-08-12T15:44:44.587Z,24.20
2022-08-12T15:45:47.344Z,22.44
2022-08-12T15:46:44.512Z,22.53
2022-08-12T15:47:49.955Z,22.35
2022-08-12T15:48:47.146Z,23.05
2022-08-12T15:50:00.118Z,24.31
2022-08-12T15:50:45.479Z,22.94
2022-08-12T15:51:58.748Z,23.43
2022-08-12T15:52:44.457Z,23.63
2022-08-12T15:53:44.441Z,25.01
2022-08-12T15:54:45.488Z,24.13
2022-08-12T15:55:46.136Z,24.51
2022-08-12T15:56:44.410Z,25.49
2022-08-12T15:57:44.574Z,26.84
2022-08-12T15:58:44.396Z,35.76
2022-08-12T16:00:00.839Z,29.10
2022-08-12T16:00:44.369Z,24.60
2022-08-12T16:01:44.391Z,36.76
2022-08-12T16:02:50.529Z,27.77
2022-08-12T16:03:46.488Z,33.48
2022-08-12T16:04:44.370Z,33.33
2022-08-12T16:06:19.016Z,29.71
2022-08-12T16:07:03.747Z,31.11
2022-08-12T16:07:44.333Z,33.58
2022-08-12T16:08:44.286Z,33.98
2022-08-12T16:09:56.757Z,32.60
2022-08-12T16:10:44.271Z,31.52
2022-08-12T16:11:44.261Z,30.72
2022-08-12T16:12:54.716Z,27.45
2022-08-12T16:13:44.630Z,30.59
2022-08-12T16:14:44.262Z,27.34
2022-08-12T16:16:02.001Z,31.56
2022-08-12T16:16:48.614Z,30.47
2022-08-12T16:18:15.271Z,30.68
2022-08-12T16:18:44.718Z,29.09
2022-08-12T16:20:03.768Z,28.00
2022-08-12T16:20:46.975Z,28.40
2022-08-12T16:21:51.965Z,31.04
2022-08-12T16:22:44.176Z,26.34
2022-08-12T16:23:52.022Z,27.12
2022-08-12T16:24:44.223Z,25.84
2022-08-12T16:26:05.462Z,29.37
2022-08-12T16:26:45.029Z,27.80
2022-08-12T16:27:44.123Z,27.70
2022-08-12T16:28:44.108Z,25.54
2022-08-12T16:29:53.067Z,27.99
2022-08-12T16:30:44.087Z,28.40
2022-08-12T16:31:44.075Z,26.34
2022-08-12T16:32:46.375Z,28.50
2022-08-12T16:33:59.728Z,27.61
2022-08-12T16:34:55.493Z,28.20
2022-08-12T16:35:44.056Z,27.71
2022-08-12T16:36:44.032Z,29.48
2022-08-12T16:38:25.423Z,27.22
2022-08-12T16:38:46.011Z,26.53
2022-08-12T16:40:00.253Z,25.55
2022-08-12T16:40:46.210Z,25.74
2022-08-12T16:41:44.072Z,25.34
2022-08-12T16:42:53.737Z,26.03
2022-08-12T16:43:43.970Z,24.95
2022-08-12T16:44:49.658Z,25.15
2022-08-12T16:46:05.319Z,24.75
2022-08-12T16:46:43.929Z,26.52
2022-08-12T16:47:58.733Z,26.32
2022-08-12T16:48:43.905Z,26.72
2022-08-12T16:49:44.011Z,26.52
2022-08-12T16:50:43.884Z,26.12
2022-08-12T16:51:46.324Z,26.42
2022-08-12T16:52:43.871Z,28.88
2022-08-12T16:53:45.574Z,27.99
2022-08-12T16:54:43.849Z,26.62
2022-08-12T16:55:43.916Z,26.91
2022-08-12T16:56:50.900Z,25.54
2022-08-12T16:57:44.170Z,25.24
2022-08-12T16:58:43.809Z,25.62
2022-08-12T16:59:54.638Z,24.55
2022-08-12T17:00:48.314Z,24.55
2022-08-12T17:01:43.830Z,25.54
2022-08-12T17:02:43.763Z,24.96
2022-08-12T17:03:52.184Z,26.32
2022-08-12T17:04:52.890Z,25.16
2022-08-12T17:05:43.749Z,25.84
2022-08-12T17:06:44.209Z,26.82
2022-08-12T17:07:44.802Z,26.93
2022-08-12T17:08:47.277Z,27.62
2022-08-12T17:09:43.718Z,26.84
2022-08-12T17:10:43.667Z,27.72
2022-08-12T17:11:43.693Z,28.31
2022-08-12T17:12:43.644Z,26.84
2022-08-12T17:13:53.672Z,28.51
2022-08-12T17:14:43.677Z,26.84
2022-08-12T17:15:57.773Z,25.95
2022-08-12T17:16:45.636Z,27.53
2022-08-12T17:17:43.595Z,27.14
2022-08-12T17:18:56.861Z,26.84
2022-08-12T17:20:30.620Z,26.95
2022-08-12T17:20:46.625Z,27.94
2022-08-12T17:22:01.638Z,26.46
2022-08-12T17:22:43.551Z,25.57
2022-08-12T17:23:48.562Z,25.78
2022-08-12T17:24:43.975Z,26.67
2022-08-12T17:25:43.520Z,24.80
2022-08-12T17:26:43.506Z,25.40
2022-08-12T17:27:43.811Z,25.31
2022-08-12T17:28:43.482Z,25.10
2022-08-12T17:30:00.682Z,25.31
2022-08-12T17:30:43.469Z,25.50
2022-08-12T17:32:01.615Z,25.70
2022-08-12T17:32:43.447Z,25.90
2022-08-12T17:33:43.499Z,25.81
2022-08-12T17:34:43.434Z,25.51
2022-08-12T17:35:49.981Z,26.01
2022-08-12T17:36:43.477Z,25.71
2022-08-12T17:37:43.398Z,26.70
2022-08-12T17:38:43.386Z,26.21
2022-08-12T17:40:15.281Z,26.12
2022-08-12T17:40:43.482Z,27.89
2022-08-12T17:41:56.542Z,26.81
2022-08-12T17:42:43.361Z,26.12
2022-08-12T17:43:52.197Z,26.32
2022-08-12T17:44:43.361Z,25.63
2022-08-12T17:45:47.298Z,28.50
2022-08-12T17:46:43.307Z,26.03
2022-08-12T17:47:43.295Z,26.32
2022-08-12T17:48:55.527Z,26.13
2022-08-12T17:50:02.242Z,27.11
2022-08-12T17:50:43.284Z,26.42
2022-08-12T17:51:50.476Z,27.61
2022-08-12T17:52:43.322Z,27.01
2022-08-12T17:54:02.277Z,26.73
2022-08-12T17:54:43.290Z,26.93
2022-08-12T17:55:48.231Z,26.14
2022-08-12T17:56:43.536Z,26.73
2022-08-12T17:57:43.299Z,26.93
2022-08-12T17:58:43.220Z,27.13
2022-08-12T17:59:48.072Z,28.23
2022-08-12T18:00:43.182Z,28.92
2022-08-12T18:01:43.309Z,27.14
2022-08-12T18:02:43.152Z,27.93
2022-08-12T18:04:05.685Z,28.72
2022-08-12T18:05:04.842Z,27.55
2022-08-12T18:05:55.483Z,28.05
2022-08-12T18:06:43.117Z,27.65
2022-08-12T18:07:43.336Z,27.75
2022-08-12T18:08:43.102Z,29.33
2022-08-12T18:09:43.091Z,27.35
2022-08-12T18:10:43.186Z,27.06